Flight Track Log - Related Links

Times and Time Zones

All times are in EDT time to prevent confusion due to time zone crossing. See the SWA2166 flight status page for this flight to view local times or setup timezone preferences in your user account.

Time Position Orientation Groundspeed Altitude Reporting Facility
EDT Latitude Longitude Course Direction KTS MPH feet Rate Location/Type
Sat 07:22:33 PM 36.0753 -115.1739 279° West 159 183 3,300  Level Los Angeles Center
Sat 07:22:56 PM 36.0767 -115.1853 279° West 186 214 3,700 1,875 Climbing Los Angeles Center
Sat 07:23:21 PM 36.0739 -115.2275 265° West 198 228 4,800 1,770 Climbing Los Angeles Center
Sat 07:23:57 PM 36.0497 -115.2639 231° Southwest 235 270 5,500 1,701 Climbing Los Angeles Center
Sat 07:24:28 PM 36.0142 -115.2817 202° Southwest 282 325 6,700 1,452 Climbing Los Angeles Center
Sat 07:24:59 PM 35.9753 -115.2981 199° South 277 319 7,000 1,419 Climbing Los Angeles Center
Sat 07:26:01 PM 35.9206 -115.2408 140° Southeast 282 325 8,900 2,274 Climbing Los Angeles Center
Sat 07:27:03 PM 35.9214 -115.1411 89° East 293 337 11,700 2,634 Climbing Los Angeles Center
Sat 07:28:04 PM 35.9222 -115.0317 89° East 312 359 14,300 2,390 Climbing Los Angeles Center
Sat 07:29:06 PM 35.9225 -114.9086 90° East 345 397 16,600 2,371 Climbing Los Angeles Center
Sat 07:30:08 PM 35.9239 -114.7781 89° East 372 428 19,200 2,585 Climbing Los Angeles Center
Sat 07:31:09 PM 35.9236 -114.6172 90° East 388 447 21,900 2,439 Climbing Los Angeles Center
Sat 07:32:11 PM 35.9242 -114.4769 90° East 402 463 24,200 2,177 Climbing Los Angeles Center
Sat 07:33:13 PM 35.9242 -114.3342 90° East 413 475 26,400 2,000 Climbing Los Angeles Center
Sat 07:34:14 PM 35.9242 -114.1903 90° East 418 481 28,300 1,707 Climbing Los Angeles Center
Sat 07:35:16 PM 35.9239 -114.0444 90° East 423 487 29,900 1,645 Climbing Los Angeles Center
Sat 07:36:18 PM 35.9211 -113.8958 91° East 431 496 31,700 1,707 Climbing Los Angeles Center
Sat 07:37:19 PM 35.8994 -113.7514 100° East 431 496 33,400 1,707 Climbing Los Angeles Center
Sat 07:38:21 PM 35.8728 -113.5828 101° East 430 495 35,200 1,707 Climbing Los Angeles Center
Sat 07:39:22 PM 35.8506 -113.4403 101° East 426 490 36,900 878 Climbing Los Angeles Center
Sat 07:40:24 PM 35.8286 -113.3025 101° East 414 476 37,000 48 Climbing Los Angeles Center
Sat 07:41:26 PM 35.8056 -113.1617 101° East 418 481 37,000  Level Los Angeles Center
Sat 07:42:27 PM 35.7828 -113.0219 101° East 416 479 37,000  Level Los Angeles Center
Sat 07:43:29 PM 35.7594 -112.8822 102° East 416 479 37,000  Level Los Angeles Center
Sat 07:44:30 PM 35.7522 -112.7431 94° East 411 473 37,000  Level Los Angeles Center
Sat 07:45:32 PM 35.7525 -112.6050 90° East 404 465 37,000  Level Los Angeles Center
Sat 07:46:33 PM 35.7514 -112.4389 90° East 404 465 37,000  Level Los Angeles Center
Sat 07:47:35 PM 35.7514 -112.2975 90° East 404 465 37,000  Level Los Angeles Center
Sat 07:48:37 PM 35.7511 -112.1636 90° East 404 465 37,000  Level Los Angeles Center
Sat 07:49:38 PM 35.7497 -112.0267 91° East 403 464 37,000  Level Los Angeles Center
Sat 07:50:40 PM 35.7475 -111.8881 91° East 407 468 37,000  Level Los Angeles Center
Sat 07:51:41 PM 35.7472 -111.7492 90° East 407 468 37,000  Level Los Angeles Center
Sat 07:52:38 PM 35.7442 -111.6108 92° East 406 467 37,000  Level Albuquerque Center
Sat 07:53:39 PM 35.7431 -111.4725 91° East 406 467 37,000  Level Albuquerque Center
Sat 07:54:40 PM 35.7428 -111.3211 90° East 404 465 37,000  Level Albuquerque Center
Sat 07:55:41 PM 35.7408 -111.1881 91° East 406 467 37,000  Level Albuquerque Center
Sat 07:56:43 PM 35.7375 -111.0306 91° East 410 472 37,000  Level Albuquerque Center
Sat 07:57:44 PM 35.7353 -110.8958 91° East 412 474 37,000  Level Albuquerque Center
Sat 07:58:45 PM 35.7328 -110.7586 91° East 417 480 37,000  Level Albuquerque Center
Sat 07:59:46 PM 35.7300 -110.5969 91° East 422 486 37,000  Level Albuquerque Center
Sat 08:00:48 PM 35.7281 -110.4572 91° East 425 489 37,000  Level Albuquerque Center
Sat 08:01:49 PM 35.7244 -110.2936 92° East 428 493 37,000  Level Albuquerque Center
Sat 08:02:50 PM 35.7219 -110.1547 91° East 426 490 37,000  Level Albuquerque Center
Sat 08:03:51 PM 35.7192 -110.0150 91° East 426 490 37,000  Level Albuquerque Center
Sat 08:04:53 PM 35.7142 -109.8517 92° East 428 493 37,000  Level Albuquerque Center
Sat 08:05:54 PM 35.7117 -109.7119 91° East 429 494 37,000  Level Albuquerque Center
Sat 08:06:55 PM 35.7078 -109.5500 92° East 426 490 37,000  Level Albuquerque Center
Sat 08:07:57 PM 35.7033 -109.4100 92° East 428 493 37,000  Level Albuquerque Center
Sat 08:08:58 PM 35.7000 -109.2717 92° East 425 489 37,000  Level Albuquerque Center
Sat 08:10:00 PM 35.6939 -109.1106 93° East 425 489 37,000  Level Albuquerque Center
Sat 08:11:01 PM 35.6894 -108.9736 92° East 423 487 37,000  Level Albuquerque Center
Sat 08:12:03 PM 35.6900 -108.8122 90° East 425 489 37,000  Level Albuquerque Center
Sat 08:13:04 PM 35.6903 -108.6747 90° East 424 488 37,000  Level Albuquerque Center
Sat 08:14:05 PM 35.6903 -108.5136 90° East 424 488 37,000  Level Albuquerque Center
Sat 08:15:07 PM 35.6889 -108.3750 91° East 424 488 37,000  Level Albuquerque Center
Sat 08:16:08 PM 35.6883 -108.2133 90° East 424 488 37,000  Level Albuquerque Center
Sat 08:17:10 PM 35.6872 -108.0742 91° East 426 490 37,000  Level Albuquerque Center
Sat 08:18:11 PM 35.6861 -107.9358 91° East 424 488 37,000  Level Albuquerque Center
Sat 08:19:12 PM 35.6831 -107.7722 91° East 429 494 37,000  Level Albuquerque Center
Sat 08:20:14 PM 35.6819 -107.6314 91° East 430 495 37,000  Level Albuquerque Center
Sat 08:21:15 PM 35.6806 -107.4650 91° East 435 501 37,000  Level Albuquerque Center
Sat 08:22:16 PM 35.6789 -107.3228 91° East 434 499 37,000  Level Albuquerque Center
Sat 08:23:18 PM 35.6786 -107.1806 90° East 434 499 37,000  Level Albuquerque Center
Sat 08:24:19 PM 35.6750 -107.0175 92° East 430 495 37,000  Level Albuquerque Center
Sat 08:25:20 PM 35.6742 -106.8767 90° East 430 495 37,000  Level Albuquerque Center
Sat 08:26:22 PM 35.6711 -106.7117 91° East 431 496 37,000  Level Albuquerque Center
Sat 08:27:23 PM 35.6700 -106.5725 91° East 429 494 37,000  Level Albuquerque Center
Sat 08:28:24 PM 35.6672 -106.4319 91° East 429 494 37,000  Level Albuquerque Center
Sat 08:29:26 PM 35.6642 -106.2661 91° East 433 498 37,000  Level Albuquerque Center
Sat 08:30:27 PM 35.6594 -106.1197 92° East 436 502 37,000  Level Albuquerque Center
Sat 08:31:28 PM 35.6569 -105.9719 91° East 434 499 37,000  Level Albuquerque Center
Sat 08:32:30 PM 35.6525 -105.8242 92° East 432 497 37,000  Level Albuquerque Center
Sat 08:33:31 PM 35.6511 -105.6767 91° East 431 496 37,000  Level Albuquerque Center
Sat 08:34:32 PM 35.6850 -105.5150 75° East 429 494 37,000  Level Albuquerque Center
Sat 08:35:33 PM 35.7128 -105.3728 76° East 425 489 37,000  Level Albuquerque Center
Sat 08:36:35 PM 35.7397 -105.2303 77° East 424 488 37,000  Level Albuquerque Center
Sat 08:37:36 PM 35.7672 -105.0883 77° East 421 484 37,000  Level Albuquerque Center
Sat 08:38:37 PM 35.7950 -104.9456 76° East 423 487 37,000  Level Albuquerque Center
Sat 08:39:39 PM 35.8242 -104.8022 76° East 425 489 37,000  Level Albuquerque Center
Sat 08:40:40 PM 35.8347 -104.6556 85° East 426 490 37,000  Level Albuquerque Center
Sat 08:41:41 PM 35.8272 -104.5075 94° East 428 493 37,000  Level Albuquerque Center
Sat 08:42:42 PM 35.8203 -104.3578 93° East 431 496 37,000  Level Albuquerque Center
Sat 08:43:44 PM 35.8125 -104.2086 94° East 431 496 37,000  Level Albuquerque Center
Sat 08:44:45 PM 35.8044 -104.0600 94° East 431 496 37,000  Level Albuquerque Center
Sat 08:45:46 PM 35.7969 -103.9108 94° East 431 496 37,000  Level Albuquerque Center
Sat 08:46:47 PM 35.7883 -103.7606 94° East 433 498 37,000  Level Albuquerque Center
Sat 08:47:48 PM 35.7806 -103.6106 94° East 434 499 37,000  Level Albuquerque Center
Sat 08:48:50 PM 35.7728 -103.4608 94° East 434 499 37,000  Level Albuquerque Center
Sat 08:49:51 PM 35.7633 -103.3100 94° East 436 502 37,000  Level Albuquerque Center
Sat 08:50:52 PM 35.7542 -103.1589 94° East 438 504 37,000  Level Albuquerque Center
Sat 08:51:53 PM 35.7469 -103.0081 93° East 437 503 37,000  Level Albuquerque Center
Sat 08:52:55 PM 35.7364 -102.8475 95° East 440 506 37,000  Level Albuquerque Center
Sat 08:53:56 PM 35.7267 -102.6978 95° East 439 505 37,000  Level Albuquerque Center
Sat 08:54:57 PM 35.7181 -102.5475 94° East 440 506 37,000  Level Albuquerque Center
Sat 08:55:58 PM 35.7064 -102.3983 95° East 439 505 37,000 492 Level Albuquerque Center
Sat 08:56:59 PM 35.6978 -102.2486 94° East 439 505 38,000 934 Climbing Albuquerque Center
Sat 08:58:00 PM 35.6883 -102.0983 94° East 440 506 38,900 488 Climbing Albuquerque Center
Sat 08:59:02 PM 35.6775 -101.9469 95° East 442 509 39,000 49 Climbing Albuquerque Center
Sat 09:00:03 PM 35.6672 -101.7931 95° East 446 513 39,000  Level Albuquerque Center
Sat 09:01:04 PM 35.6567 -101.6394 95° East 448 516 39,000  Level Albuquerque Center
Sat 09:02:05 PM 35.6456 -101.4858 95° East 448 516 39,000  Level Albuquerque Center
Sat 09:03:06 PM 35.6308 -101.3028 96° East 447 514 39,000  Level Albuquerque Center
Sat 09:04:07 PM 35.6197 -101.1508 95° East 445 512 39,000  Level Albuquerque Center
Sat 09:05:08 PM 35.6083 -100.9986 95° East 446 513 39,000  Level Albuquerque Center
Sat 09:06:09 PM 35.5967 -100.8469 95° East 446 513 39,000  Level Albuquerque Center
Sat 09:07:11 PM 35.5844 -100.6933 96° East 448 516 39,000  Level Albuquerque Center
Sat 09:08:12 PM 35.5725 -100.5325 95° East 452 520 39,000  Level Albuquerque Center
Sat 09:09:13 PM 35.5594 -100.3789 96° East 453 521 39,000  Level Albuquerque Center
Sat 09:10:14 PM 35.5461 -100.2261 96° East 451 519 39,000  Level Albuquerque Center
Sat 09:11:15 PM 35.5331 -100.0719 96° East 453 521 39,000  Level Albuquerque Center
Sat 09:12:16 PM 35.5200 -99.9178 96° East 454 522 39,000  Level Albuquerque Center
Sat 09:13:17 PM 35.5072 -99.7636 96° East 455 524 39,000  Level Albuquerque Center
Sat 09:14:18 PM 35.4922 -99.6083 97° East 459 528 39,000  Level Albuquerque Center
Sat 09:14:37 PM 35.4861 -99.5372 96° East 461 531 39,000  Level Fort Worth Center
Sat 09:15:37 PM 35.4700 -99.3839 97° East 461 531 39,000  Level Fort Worth Center
Sat 09:16:37 PM 35.4578 -99.2256 95° East 466 536 39,000  Level Fort Worth Center
Sat 09:17:37 PM 35.4433 -99.0672 96° East 466 536 39,000  Level Fort Worth Center
Sat 09:18:37 PM 35.4286 -98.9114 97° East 466 536 39,000  Level Fort Worth Center
Sat 09:19:38 PM 35.4136 -98.7508 96° East 466 536 39,000  Level Fort Worth Center
Sat 09:20:37 PM 35.3986 -98.5978 97° East 466 536 39,000  Level Fort Worth Center
Sat 09:21:38 PM 35.3811 -98.4447 98° East 460 529 39,000  Level Fort Worth Center
Sat 09:22:38 PM 35.3678 -98.2867 96° East 460 529 39,000  Level Fort Worth Center
Sat 09:23:37 PM 35.3500 -98.1314 98° East 460 529 39,000  Level Fort Worth Center
Sat 09:24:38 PM 35.3342 -97.9733 97° East 466 536 39,000  Level Fort Worth Center
Sat 09:25:38 PM 35.3181 -97.8156 97° East 466 536 39,000  Level Fort Worth Center
Sat 09:26:37 PM 35.3017 -97.6578 97° East 466 536 39,000  Level Fort Worth Center
Sat 09:27:38 PM 35.2872 -97.4925 96° East 471 542 39,000  Level Fort Worth Center
Sat 09:28:38 PM 35.2706 -97.3297 97° East 481 554 39,000  Level Fort Worth Center
Sat 09:29:38 PM 35.2600 -97.2000 96° East 481 554 39,000  Level Fort Worth Center
Sat 09:30:37 PM 35.2325 -97.0247 101° East 481 554 39,000  Level Fort Worth Center
Sat 09:31:38 PM 35.2131 -96.8647 98° East 481 554 39,000  Level Fort Worth Center
Sat 09:32:37 PM 35.1956 -96.7047 98° East 481 554 39,000  Level Fort Worth Center
Sat 09:33:38 PM 35.1781 -96.5475 98° East 481 554 39,000  Level Fort Worth Center
Sat 09:34:38 PM 35.1600 -96.3850 98° East 481 554 39,000  Level Fort Worth Center
Sat 09:35:37 PM 35.1400 -96.2228 99° East 481 554 39,000  Level Fort Worth Center
Sat 09:36:38 PM 35.1194 -96.0606 99° East 481 554 39,000  Level Fort Worth Center
Sat 09:37:37 PM 35.1008 -95.8961 98° East 481 554 39,000  Level Fort Worth Center
Sat 09:39:44 PM 35.0583 -95.5369 98° East 484 557 39,000  Level Memphis Center
Sat 09:40:44 PM 35.0400 -95.3736 98° East 484 557 39,000  Level Memphis Center
Sat 09:41:44 PM 35.0175 -95.2050 99° East 491 565 39,000  Level Memphis Center
Sat 09:42:45 PM 34.9967 -95.0389 99° East 491 565 39,000  Level Memphis Center
Sat 09:43:44 PM 34.9756 -94.8783 99° East 486 559 39,000  Level Memphis Center
Sat 09:44:44 PM 34.9544 -94.7125 99° East 486 559 39,000  Level Memphis Center
Sat 09:45:44 PM 34.9367 -94.5544 98° East 497 572 39,000  Level Memphis Center
Sat 09:46:44 PM 34.9111 -94.3886 101° East 497 572 39,000  Level Memphis Center
Sat 09:47:44 PM 34.8892 -94.2206 99° East 497 572 39,000  Level Memphis Center
Sat 09:48:44 PM 34.8650 -94.0522 100° East 497 572 39,000  Level Memphis Center
Sat 09:49:44 PM 34.8428 -93.8869 99° East 503 579 39,000  Level Memphis Center
Sat 09:50:44 PM 34.8203 -93.7189 99° East 503 579 39,000  Level Memphis Center
Sat 09:51:44 PM 34.7975 -93.5486 99° East 508 585 39,000  Level Memphis Center
Sat 09:52:44 PM 34.7728 -93.3758 100° East 508 585 39,000  Level Memphis Center
Sat 09:53:44 PM 34.7494 -93.2081 100° East 508 585 39,000  Level Memphis Center
Sat 09:54:44 PM 34.7239 -93.0431 101° East 503 579 39,000  Level Memphis Center
Sat 09:55:44 PM 34.7003 -92.8731 100° East 508 585 39,000  Level Memphis Center
Sat 09:56:44 PM 34.6767 -92.7058 100° East 508 585 39,000  Level Memphis Center
Sat 09:57:44 PM 34.6467 -92.5181 101° East 508 585 39,000  Level Memphis Center
Sat 09:58:44 PM 34.6242 -92.3508 99° East 508 585 39,000  Level Memphis Center
Sat 09:59:44 PM 34.5975 -92.1839 101° East 508 585 39,000  Level Memphis Center
Sat 10:00:44 PM 34.5708 -92.0142 101° East 508 585 39,000  Level Memphis Center
Sat 10:01:44 PM 34.5458 -91.8472 100° East 508 585 39,000  Level Memphis Center
Sat 10:02:44 PM 34.5183 -91.6781 101° East 508 585 39,000  Level Memphis Center
Sat 10:03:44 PM 34.4950 -91.5114 100° East 508 585 39,000  Level Memphis Center
Sat 10:04:44 PM 34.4653 -91.3422 102° East 508 585 39,000  Level Memphis Center
Sat 10:05:44 PM 34.4414 -91.1781 100° East 503 579 39,000  Level Memphis Center
Sat 10:06:44 PM 34.4111 -91.0067 102° East 498 573 39,000  Level Memphis Center
Sat 10:07:44 PM 34.3867 -90.8581 101° East 505 581 39,000  Level Memphis Center
Sat 10:08:44 PM 34.3581 -90.6867 101° East 510 587 39,000  Level Memphis Center
Sat 10:09:44 PM 34.3292 -90.5206 102° East 505 581 39,000  Level Memphis Center
Sat 10:10:44 PM 34.3022 -90.3494 101° East 512 589 39,000  Level Memphis Center
Sat 10:11:44 PM 34.2728 -90.1786 102° East 512 589 39,000  Level Memphis Center
Sat 10:12:44 PM 34.2431 -90.0131 102° East 507 583 39,000  Level Memphis Center
Sat 10:13:44 PM 34.2133 -89.8397 102° East 513 590 39,000  Level Memphis Center
Sat 10:14:44 PM 34.1833 -89.6667 102° East 521 600 39,000  Level Memphis Center
Sat 10:15:44 PM 34.1550 -89.4986 101° East 520 598 39,000  Level Memphis Center
Sat 10:16:44 PM 34.1225 -89.3233 103° East 526 605 39,000 -850 Level Memphis Center
Sat 10:17:44 PM 34.0894 -89.1333 102° East 526 605 37,300 -2,250 Descending Memphis Center
Sat 10:18:44 PM 34.0583 -88.9556 102° East 532 612 34,500 -2,850 Descending Memphis Center
Sat 10:19:44 PM 34.0314 -88.7981 102° East 538 619 31,600 -2,678 Descending Memphis Center
Sat 10:20:45 PM 33.9978 -88.6258 103° East 532 612 29,100 -2,450 Descending Memphis Center
Sat 10:21:44 PM 33.9661 -88.4511 102° East 527 606 26,700 -2,370 Descending Memphis Center
Sat 10:22:44 PM 33.9364 -88.2892 102° East 515 593 24,400 -2,153 Descending Memphis Center
Sat 10:24:34 PM 33.8847 -88.0100 102° East 483 556 20,600 -2,192 Descending Atlanta Center
Sat 10:25:20 PM 33.8614 -87.8861 103° East 444 511 18,700 -2,218 Descending Atlanta Center
Sat 10:26:33 PM 33.8289 -87.7197 103° East 410 472 16,200 -2,060 Descending Atlanta Center
Sat 10:27:34 PM 33.8014 -87.5911 104° East 406 467 14,100 -2,066 Descending Atlanta Center
Sat 10:27:34 PM 33.8014 -87.5911 104° East 392 451 14,100 -2,500 Level Atlanta Center
Sat 10:28:34 PM 33.7586 -87.4794 115° Southeast 365 420 11,600 -1,900 Descending Atlanta Center
Sat 10:29:34 PM 33.7200 -87.3731 114° Southeast 359 413 10,300 -1,550 Descending Atlanta Center
Sat 10:30:34 PM 33.6828 -87.2792 115° Southeast 331 381 8,500 -1,850 Descending Atlanta Center
Sat 10:31:34 PM 33.6475 -87.1856 114° Southeast 314 361 6,600 -1,750 Descending Atlanta Center
Sat 10:32:34 PM 33.6122 -87.0994 116° Southeast 299 344 5,000 -1,300 Descending Atlanta Center
Sat 10:33:34 PM 33.5786 -87.0183 116° Southeast 286 329 4,000 -950 Descending Atlanta Center
Sat 10:34:34 PM 33.5492 -86.9400 114° Southeast 274 315 3,100 -774 Descending Atlanta Center
Sat 10:35:38 PM 33.5194 -86.8719 118° Southeast 204 235 2,400 -756 Descending Atlanta Center
Sat 10:36:33 PM 33.5228 -86.8272 85° East 135 155 1,600 -730 Descending Atlanta Center
Sat 10:37:33 PM 33.5444 -86.7906 55° Northeast 124 143 1,000 -600 Descending Atlanta Center
Sat 10:39:00 PM 33.5500 -86.7500 71° East  Level FlightAware Approximate
Sat 10:46:00 PM 33.5639 -86.7523 71° East  Level Estimated

Login

Don't have an account? Register now (free) for customized features, flight alerts, and more!